sensor_id;sensor_type;location;lat;lon;timestamp;pressure;altitude;pressure_sealevel;temperature;humidity
550;BME280;20066;48.764;9.176;2022-08-19T00:01:25;97750.00;;;24.46;52.03
550;BME280;20066;48.764;9.176;2022-08-19T00:03:56;97749.22;;;24.71;51.03
550;BME280;20066;48.764;9.176;2022-08-19T00:06:24;97751.41;;;24.67;51.60
550;BME280;20066;48.764;9.176;2022-08-19T00:08:52;97736.09;;;24.86;50.89
550;BME280;20066;48.764;9.176;2022-08-19T00:11:20;97744.75;;;24.42;52.30
550;BME280;20066;48.764;9.176;2022-08-19T00:13:51;97747.22;;;23.89;52.87
550;BME280;20066;48.764;9.176;2022-08-19T00:16:24;97761.16;;;24.63;51.73
550;BME280;20066;48.764;9.176;2022-08-19T00:18:53;97754.78;;;24.77;51.25
550;BME280;20066;48.764;9.176;2022-08-19T00:21:21;97749.63;;;24.59;51.30
550;BME280;20066;48.764;9.176;2022-08-19T00:23:49;97748.72;;;25.04;51.86
550;BME280;20066;48.764;9.176;2022-08-19T00:26:17;97751.94;;;25.03;50.70
550;BME280;20066;48.764;9.176;2022-08-19T00:28:45;97750.88;;;24.89;50.13
550;BME280;20066;48.764;9.176;2022-08-19T00:31:13;97749.16;;;24.97;50.72
550;BME280;20066;48.764;9.176;2022-08-19T00:33:44;97739.75;;;24.15;52.88
550;BME280;20066;48.764;9.176;2022-08-19T00:36:11;97735.16;;;24.64;51.30
550;BME280;20066;48.764;9.176;2022-08-19T00:38:39;97732.59;;;24.91;51.35
550;BME280;20066;48.764;9.176;2022-08-19T00:41:09;97716.25;;;24.45;51.35
550;BME280;20066;48.764;9.176;2022-08-19T00:43:39;97711.91;;;24.65;51.12
550;BME280;20066;48.764;9.176;2022-08-19T00:46:07;97721.56;;;24.23;52.49
550;BME280;20066;48.764;9.176;2022-08-19T00:48:35;97723.19;;;24.35;51.92
550;BME280;20066;48.764;9.176;2022-08-19T00:51:05;97721.22;;;24.10;53.72
550;BME280;20066;48.764;9.176;2022-08-19T00:53:33;97721.56;;;23.71;54.91
550;BME280;20066;48.764;9.176;2022-08-19T00:56:02;97732.81;;;24.20;54.04
550;BME280;20066;48.764;9.176;2022-08-19T00:58:34;97736.81;;;24.81;51.88
550;BME280;20066;48.764;9.176;2022-08-19T01:01:04;97745.13;;;24.92;51.76
550;BME280;20066;48.764;9.176;2022-08-19T01:03:32;97736.72;;;24.39;52.74
550;BME280;20066;48.764;9.176;2022-08-19T01:06:21;97746.31;;;24.80;51.07
550;BME280;20066;48.764;9.176;2022-08-19T01:08:49;97735.94;;;25.07;51.21
550;BME280;20066;48.764;9.176;2022-08-19T01:11:17;97742.94;;;24.34;51.69
550;BME280;20066;48.764;9.176;2022-08-19T01:13:45;97737.28;;;23.71;54.62
550;BME280;20066;48.764;9.176;2022-08-19T01:16:16;97733.59;;;24.57;52.02
550;BME280;20066;48.764;9.176;2022-08-19T01:18:45;97730.38;;;24.90;50.73
550;BME280;20066;48.764;9.176;2022-08-19T01:21:18;97723.97;;;24.73;51.98
550;BME280;20066;48.764;9.176;2022-08-19T01:23:49;97728.59;;;24.87;51.15
550;BME280;20066;48.764;9.176;2022-08-19T01:26:21;97732.59;;;24.91;50.55
550;BME280;20066;48.764;9.176;2022-08-19T01:28:51;97734.00;;;24.76;50.65
550;BME280;20066;48.764;9.176;2022-08-19T01:31:27;97730.28;;;24.79;51.75
550;BME280;20066;48.764;9.176;2022-08-19T01:33:58;97721.66;;;24.97;50.85
550;BME280;20066;48.764;9.176;2022-08-19T01:36:30;97715.91;;;25.06;51.66
550;BME280;20066;48.764;9.176;2022-08-19T01:39:00;97721.84;;;24.88;51.87
550;BME280;20066;48.764;9.176;2022-08-19T01:41:28;97712.41;;;24.69;51.71
550;BME280;20066;48.764;9.176;2022-08-19T01:43:56;97726.88;;;24.58;52.12
550;BME280;20066;48.764;9.176;2022-08-19T01:46:44;97726.63;;;24.62;51.82
550;BME280;20066;48.764;9.176;2022-08-19T01:49:13;97723.00;;;24.76;51.49
550;BME280;20066;48.764;9.176;2022-08-19T01:51:41;97716.63;;;24.96;51.17
550;BME280;20066;48.764;9.176;2022-08-19T01:54:12;97717.41;;;24.65;52.43
550;BME280;20066;48.764;9.176;2022-08-19T01:56:56;97719.88;;;24.63;52.30
550;BME280;20066;48.764;9.176;2022-08-19T01:59:25;97726.34;;;24.60;52.57
550;BME280;20066;48.764;9.176;2022-08-19T02:01:52;97726.00;;;24.15;52.98
550;BME280;20066;48.764;9.176;2022-08-19T02:04:20;97728.16;;;24.31;52.90
550;BME280;20066;48.764;9.176;2022-08-19T02:06:49;97729.25;;;24.76;52.47
550;BME280;20066;48.764;9.176;2022-08-19T02:09:18;97733.44;;;24.35;52.73
550;BME280;20066;48.764;9.176;2022-08-19T02:11:46;97732.88;;;24.31;53.96
550;BME280;20066;48.764;9.176;2022-08-19T02:14:14;97733.75;;;24.42;52.56
550;BME280;20066;48.764;9.176;2022-08-19T02:16:42;97724.31;;;24.23;53.27
550;BME280;20066;48.764;9.176;2022-08-19T02:19:10;97718.38;;;24.62;52.58
550;BME280;20066;48.764;9.176;2022-08-19T02:21:37;97722.56;;;24.20;53.28
550;BME280;20066;48.764;9.176;2022-08-19T02:24:05;97719.09;;;23.99;53.60
550;BME280;20066;48.764;9.176;2022-08-19T02:26:35;97723.13;;;24.04;54.38
550;BME280;20066;48.764;9.176;2022-08-19T02:29:03;97728.69;;;24.35;53.18
550;BME280;20066;48.764;9.176;2022-08-19T02:31:31;97726.41;;;24.08;53.89
550;BME280;20066;48.764;9.176;2022-08-19T02:33:59;97725.72;;;23.41;56.30
550;BME280;20066;48.764;9.176;2022-08-19T02:36:27;97728.94;;;23.86;55.44
550;BME280;20066;48.764;9.176;2022-08-19T02:38:56;97727.81;;;23.72;55.28
550;BME280;20066;48.764;9.176;2022-08-19T02:41:25;97729.13;;;24.02;54.24
550;BME280;20066;48.764;9.176;2022-08-19T02:43:55;97725.78;;;23.47;56.19
550;BME280;20066;48.764;9.176;2022-08-19T02:46:46;97722.13;;;23.35;56.91
550;BME280;20066;48.764;9.176;2022-08-19T02:49:17;97718.13;;;22.95;58.01
550;BME280;20066;48.764;9.176;2022-08-19T02:51:45;97711.59;;;23.13;57.20
550;BME280;20066;48.764;9.176;2022-08-19T02:54:14;97722.72;;;23.24;56.96
550;BME280;20066;48.764;9.176;2022-08-19T02:56:43;97715.19;;;23.60;56.19
550;BME280;20066;48.764;9.176;2022-08-19T02:59:12;97716.03;;;23.46;56.88
550;BME280;20066;48.764;9.176;2022-08-19T03:01:41;97714.13;;;22.96;58.14
550;BME280;20066;48.764;9.176;2022-08-19T03:04:11;97707.66;;;22.79;59.06
550;BME280;20066;48.764;9.176;2022-08-19T03:06:41;97709.84;;;22.75;59.89
550;BME280;20066;48.764;9.176;2022-08-19T03:09:10;97710.81;;;22.57;59.44
550;BME280;20066;48.764;9.176;2022-08-19T03:11:38;97720.44;;;23.02;59.39
550;BME280;20066;48.764;9.176;2022-08-19T03:14:08;97727.69;;;22.85;59.59
550;BME280;20066;48.764;9.176;2022-08-19T03:16:42;97734.53;;;23.10;58.43
550;BME280;20066;48.764;9.176;2022-08-19T03:19:10;97737.19;;;22.40;60.47
550;BME280;20066;48.764;9.176;2022-08-19T03:21:38;97733.50;;;23.28;59.05
550;BME280;20066;48.764;9.176;2022-08-19T03:24:07;97741.28;;;23.50;58.23
550;BME280;20066;48.764;9.176;2022-08-19T03:26:38;97736.09;;;23.37;59.05
550;BME280;20066;48.764;9.176;2022-08-19T03:29:06;97730.78;;;22.93;58.64
550;BME280;20066;48.764;9.176;2022-08-19T03:31:41;97723.53;;;23.10;58.10
550;BME280;20066;48.764;9.176;2022-08-19T03:34:20;97719.69;;;23.22;58.90
550;BME280;20066;48.764;9.176;2022-08-19T03:36:48;97737.69;;;23.03;58.62
550;BME280;20066;48.764;9.176;2022-08-19T03:39:16;97729.78;;;23.31;57.93
550;BME280;20066;48.764;9.176;2022-08-19T03:41:46;97735.81;;;23.75;56.13
550;BME280;20066;48.764;9.176;2022-08-19T03:44:35;97735.34;;;23.77;56.67
550;BME280;20066;48.764;9.176;2022-08-19T03:47:05;97736.97;;;22.58;59.57
550;BME280;20066;48.764;9.176;2022-08-19T03:49:33;97727.00;;;22.90;59.02
550;BME280;20066;48.764;9.176;2022-08-19T03:52:03;97724.50;;;23.07;58.52
550;BME280;20066;48.764;9.176;2022-08-19T03:54:34;97726.03;;;22.73;59.37
550;BME280;20066;48.764;9.176;2022-08-19T03:57:02;97734.25;;;23.28;57.83
550;BME280;20066;48.764;9.176;2022-08-19T03:59:32;97736.38;;;23.39;57.52
550;BME280;20066;48.764;9.176;2022-08-19T04:02:05;97732.41;;;22.85;58.76
550;BME280;20066;48.764;9.176;2022-08-19T04:04:37;97740.41;;;22.09;61.39
550;BME280;20066;48.764;9.176;2022-08-19T04:07:05;97736.41;;;21.96;62.15
550;BME280;20066;48.764;9.176;2022-08-19T04:09:33;97739.19;;;22.40;61.27
550;BME280;20066;48.764;9.176;2022-08-19T04:12:03;97738.69;;;22.71;59.97
550;BME280;20066;48.764;9.176;2022-08-19T04:14:32;97744.75;;;23.10;58.98
550;BME280;20066;48.764;9.176;2022-08-19T04:17:01;97741.72;;;23.08;58.34
550;BME280;20066;48.764;9.176;2022-08-19T04:19:31;97743.91;;;23.03;58.84
550;BME280;20066;48.764;9.176;2022-08-19T04:22:00;97737.72;;;23.43;57.28
550;BME280;20066;48.764;9.176;2022-08-19T04:24:28;97738.44;;;23.24;58.38
550;BME280;20066;48.764;9.176;2022-08-19T04:26:56;97740.25;;;22.92;59.09
550;BME280;20066;48.764;9.176;2022-08-19T04:29:24;97734.69;;;22.86;58.62
550;BME280;20066;48.764;9.176;2022-08-19T04:31:55;97740.69;;;22.41;60.44
550;BME280;20066;48.764;9.176;2022-08-19T04:34:25;97728.88;;;22.20;61.04
550;BME280;20066;48.764;9.176;2022-08-19T04:36:55;97730.00;;;22.72;59.82
550;BME280;20066;48.764;9.176;2022-08-19T04:39:27;97723.03;;;22.42;60.64
550;BME280;20066;48.764;9.176;2022-08-19T04:42:17;97732.22;;;22.88;58.99
550;BME280;20066;48.764;9.176;2022-08-19T04:45:03;97740.28;;;22.62;59.74
550;BME280;20066;48.764;9.176;2022-08-19T04:47:35;97741.38;;;23.00;58.84
550;BME280;20066;48.764;9.176;2022-08-19T04:50:23;97744.19;;;23.05;58.45
550;BME280;20066;48.764;9.176;2022-08-19T04:52:51;97747.31;;;23.33;57.83
550;BME280;20066;48.764;9.176;2022-08-19T04:55:21;97744.94;;;22.71;59.52
550;BME280;20066;48.764;9.176;2022-08-19T04:57:49;97744.06;;;21.29;64.65
550;BME280;20066;48.764;9.176;2022-08-19T05:00:17;97746.34;;;21.31;64.58
550;BME280;20066;48.764;9.176;2022-08-19T05:02:45;97744.03;;;21.77;62.63
550;BME280;20066;48.764;9.176;2022-08-19T05:05:12;97746.38;;;22.22;61.84
550;BME280;20066;48.764;9.176;2022-08-19T05:07:40;97749.66;;;22.12;61.85
550;BME280;20066;48.764;9.176;2022-08-19T05:10:09;97751.06;;;22.51;60.79
550;BME280;20066;48.764;9.176;2022-08-19T05:12:39;97752.84;;;22.69;60.52
550;BME280;20066;48.764;9.176;2022-08-19T05:15:08;97758.47;;;22.31;61.62
550;BME280;20066;48.764;9.176;2022-08-19T05:17:36;97766.09;;;21.73;63.01
550;BME280;20066;48.764;9.176;2022-08-19T05:20:06;97775.13;;;22.42;61.58
550;BME280;20066;48.764;9.176;2022-08-19T05:22:51;97781.97;;;22.96;59.53
550;BME280;20066;48.764;9.176;2022-08-19T05:25:20;97795.59;;;22.90;59.63
550;BME280;20066;48.764;9.176;2022-08-19T05:27:50;97804.22;;;22.54;60.48
550;BME280;20066;48.764;9.176;2022-08-19T05:30:18;97820.00;;;22.74;60.52
550;BME280;20066;48.764;9.176;2022-08-19T05:33:06;97830.25;;;22.88;59.75
550;BME280;20066;48.764;9.176;2022-08-19T05:35:36;97831.16;;;22.26;62.27
550;BME280;20066;48.764;9.176;2022-08-19T05:38:04;97834.28;;;21.95;63.34
550;BME280;20066;48.764;9.176;2022-08-19T05:40:34;97840.22;;;22.17;62.25
550;BME280;20066;48.764;9.176;2022-08-19T05:43:06;97839.97;;;21.82;63.29
550;BME280;20066;48.764;9.176;2022-08-19T05:45:38;97833.28;;;22.07;62.27
550;BME280;20066;48.764;9.176;2022-08-19T05:48:06;97835.16;;;22.01;62.96
550;BME280;20066;48.764;9.176;2022-08-19T05:50:38;97832.16;;;21.90;63.01
550;BME280;20066;48.764;9.176;2022-08-19T05:53:06;97831.19;;;21.78;63.81
550;BME280;20066;48.764;9.176;2022-08-19T05:55:35;97827.59;;;21.72;63.82
550;BME280;20066;48.764;9.176;2022-08-19T05:58:05;97836.34;;;22.39;61.64
550;BME280;20066;48.764;9.176;2022-08-19T06:00:34;97829.47;;;22.05;62.70
550;BME280;20066;48.764;9.176;2022-08-19T06:03:02;97830.19;;;22.44;61.19
550;BME280;20066;48.764;9.176;2022-08-19T06:05:39;97827.91;;;23.16;58.68
550;BME280;20066;48.764;9.176;2022-08-19T06:08:18;97832.22;;;22.58;60.68
550;BME280;20066;48.764;9.176;2022-08-19T06:11:12;97839.38;;;22.99;59.20
550;BME280;20066;48.764;9.176;2022-08-19T06:13:42;97832.56;;;22.36;61.44
550;BME280;20066;48.764;9.176;2022-08-19T06:16:11;97837.25;;;22.06;62.45
550;BME280;20066;48.764;9.176;2022-08-19T06:18:39;97840.00;;;22.21;62.52
550;BME280;20066;48.764;9.176;2022-08-19T06:21:07;97838.72;;;22.90;59.99
550;BME280;20066;48.764;9.176;2022-08-19T06:23:35;97832.97;;;23.02;59.83
550;BME280;20066;48.764;9.176;2022-08-19T06:26:02;97824.19;;;22.01;62.98
550;BME280;20066;48.764;9.176;2022-08-19T06:28:30;97831.34;;;22.66;60.47
550;BME280;20066;48.764;9.176;2022-08-19T06:31:06;97835.81;;;22.64;61.36
550;BME280;20066;48.764;9.176;2022-08-19T06:33:33;97835.34;;;22.12;62.59
550;BME280;20066;48.764;9.176;2022-08-19T06:36:01;97829.66;;;22.54;61.62
550;BME280;20066;48.764;9.176;2022-08-19T06:38:29;97839.38;;;22.99;59.82
550;BME280;20066;48.764;9.176;2022-08-19T06:41:00;97835.13;;;22.69;60.69
550;BME280;20066;48.764;9.176;2022-08-19T06:43:33;97837.97;;;22.45;61.83
550;BME280;20066;48.764;9.176;2022-08-19T06:46:12;97836.19;;;22.86;60.83
550;BME280;20066;48.764;9.176;2022-08-19T06:48:40;97840.13;;;21.88;65.17
550;BME280;20066;48.764;9.176;2022-08-19T06:51:11;97831.69;;;22.15;64.18
550;BME280;20066;48.764;9.176;2022-08-19T06:53:44;97838.75;;;21.60;65.71
550;BME280;20066;48.764;9.176;2022-08-19T06:56:15;97839.91;;;22.15;64.79
550;BME280;20066;48.764;9.176;2022-08-19T06:58:43;97841.88;;;22.00;65.14
550;BME280;20066;48.764;9.176;2022-08-19T07:01:12;97844.94;;;21.69;66.49
550;BME280;20066;48.764;9.176;2022-08-19T07:03:40;97850.91;;;22.59;62.71
550;BME280;20066;48.764;9.176;2022-08-19T07:06:11;97847.25;;;22.77;62.21
550;BME280;20066;48.764;9.176;2022-08-19T07:09:01;97855.25;;;23.25;61.03
550;BME280;20066;48.764;9.176;2022-08-19T07:11:29;97854.78;;;22.67;63.27
550;BME280;20066;48.764;9.176;2022-08-19T07:13:59;97852.94;;;23.03;61.22
550;BME280;20066;48.764;9.176;2022-08-19T07:16:29;97855.75;;;22.64;61.24
550;BME280;20066;48.764;9.176;2022-08-19T07:18:58;97860.25;;;22.23;63.22
550;BME280;20066;48.764;9.176;2022-08-19T07:21:41;97862.94;;;22.47;62.66
550;BME280;20066;48.764;9.176;2022-08-19T07:24:09;97858.19;;;22.48;63.31
550;BME280;20066;48.764;9.176;2022-08-19T07:26:40;97852.06;;;22.82;62.46
550;BME280;20066;48.764;9.176;2022-08-19T07:29:10;97860.03;;;22.95;61.57
550;BME280;20066;48.764;9.176;2022-08-19T07:31:40;97858.50;;;23.58;59.24
550;BME280;20066;48.764;9.176;2022-08-19T07:34:11;97857.09;;;23.48;59.31
550;BME280;20066;48.764;9.176;2022-08-19T07:36:42;97860.47;;;22.64;62.29
550;BME280;20066;48.764;9.176;2022-08-19T07:39:12;97863.38;;;22.46;62.34
550;BME280;20066;48.764;9.176;2022-08-19T07:41:41;97869.19;;;22.92;61.55
550;BME280;20066;48.764;9.176;2022-08-19T07:44:10;97857.38;;;23.50;59.91
550;BME280;20066;48.764;9.176;2022-08-19T07:46:42;97859.88;;;22.31;62.43
550;BME280;20066;48.764;9.176;2022-08-19T07:49:13;97867.88;;;22.58;62.38
550;BME280;20066;48.764;9.176;2022-08-19T07:51:46;97863.31;;;22.70;62.24
550;BME280;20066;48.764;9.176;2022-08-19T07:54:15;97860.41;;;22.88;61.29
550;BME280;20066;48.764;9.176;2022-08-19T07:56:43;97858.81;;;22.81;61.26
550;BME280;20066;48.764;9.176;2022-08-19T07:59:11;97861.69;;;22.48;62.86
550;BME280;20066;48.764;9.176;2022-08-19T08:01:40;97877.97;;;20.82;69.32
550;BME280;20066;48.764;9.176;2022-08-19T08:04:08;97866.19;;;21.50;66.34
550;BME280;20066;48.764;9.176;2022-08-19T08:06:53;97864.81;;;22.41;63.53
550;BME280;20066;48.764;9.176;2022-08-19T08:09:41;97856.88;;;21.81;65.35
550;BME280;20066;48.764;9.176;2022-08-19T08:12:21;97871.50;;;21.12;67.82
550;BME280;20066;48.764;9.176;2022-08-19T08:15:03;97878.66;;;22.23;65.06
550;BME280;20066;48.764;9.176;2022-08-19T08:17:35;97877.63;;;21.49;67.14
550;BME280;20066;48.764;9.176;2022-08-19T08:20:18;97875.59;;;22.06;64.96
550;BME280;20066;48.764;9.176;2022-08-19T08:22:47;97883.84;;;22.21;64.02
550;BME280;20066;48.764;9.176;2022-08-19T08:25:33;97874.22;;;22.79;62.00
550;BME280;20066;48.764;9.176;2022-08-19T08:28:02;97880.31;;;22.06;66.00
550;BME280;20066;48.764;9.176;2022-08-19T08:30:31;97881.31;;;21.94;65.50
550;BME280;20066;48.764;9.176;2022-08-19T08:33:03;97885.38;;;21.08;69.82
550;BME280;20066;48.764;9.176;2022-08-19T08:35:32;97870.88;;;22.07;66.91
550;BME280;20066;48.764;9.176;2022-08-19T08:38:02;97884.81;;;22.18;66.45
550;BME280;20066;48.764;9.176;2022-08-19T08:40:39;97878.53;;;22.56;65.02
550;BME280;20066;48.764;9.176;2022-08-19T08:43:21;97878.22;;;22.24;65.52
550;BME280;20066;48.764;9.176;2022-08-19T08:45:52;97878.88;;;21.39;67.82
550;BME280;20066;48.764;9.176;2022-08-19T08:48:26;97880.69;;;22.37;65.32
550;BME280;20066;48.764;9.176;2022-08-19T08:51:03;97871.75;;;22.13;65.80
550;BME280;20066;48.764;9.176;2022-08-19T08:53:35;97875.34;;;21.47;67.97
550;BME280;20066;48.764;9.176;2022-08-19T08:56:08;97877.38;;;22.33;65.20
550;BME280;20066;48.764;9.176;2022-08-19T08:58:49;97874.69;;;22.77;64.02
550;BME280;20066;48.764;9.176;2022-08-19T09:01:20;97883.63;;;23.22;62.20
550;BME280;20066;48.764;9.176;2022-08-19T09:03:50;97885.69;;;23.56;61.10
550;BME280;20066;48.764;9.176;2022-08-19T09:06:24;97886.25;;;22.04;66.05
550;BME280;20066;48.764;9.176;2022-08-19T09:09:01;97888.03;;;22.31;66.66
550;BME280;20066;48.764;9.176;2022-08-19T09:11:47;97889.25;;;22.83;64.09
550;BME280;20066;48.764;9.176;2022-08-19T09:14:32;97888.47;;;22.97;63.06
550;BME280;20066;48.764;9.176;2022-08-19T09:17:17;97895.47;;;23.13;63.02
550;BME280;20066;48.764;9.176;2022-08-19T09:19:53;97894.06;;;22.74;64.24
550;BME280;20066;48.764;9.176;2022-08-19T09:22:21;97892.28;;;22.85;64.02
550;BME280;20066;48.764;9.176;2022-08-19T09:24:53;97892.34;;;23.50;62.72
550;BME280;20066;48.764;9.176;2022-08-19T09:27:22;97888.78;;;22.70;64.24
550;BME280;20066;48.764;9.176;2022-08-19T09:30:14;97887.72;;;22.67;64.49
550;BME280;20066;48.764;9.176;2022-08-19T09:32:43;97892.66;;;23.08;63.60
550;BME280;20066;48.764;9.176;2022-08-19T09:35:13;97889.19;;;23.77;60.63
550;BME280;20066;48.764;9.176;2022-08-19T09:37:42;97886.03;;;22.99;62.44
550;BME280;20066;48.764;9.176;2022-08-19T09:40:11;97885.25;;;23.14;62.65
550;BME280;20066;48.764;9.176;2022-08-19T09:42:41;97889.69;;;22.67;64.29
550;BME280;20066;48.764;9.176;2022-08-19T09:45:18;97883.75;;;22.98;63.79
550;BME280;20066;48.764;9.176;2022-08-19T09:47:48;97897.09;;;22.76;64.20
550;BME280;20066;48.764;9.176;2022-08-19T09:50:22;97887.41;;;22.12;66.72
550;BME280;20066;48.764;9.176;2022-08-19T09:52:51;97899.22;;;22.42;64.98
550;BME280;20066;48.764;9.176;2022-08-19T09:55:24;97895.13;;;22.76;64.83
550;BME280;20066;48.764;9.176;2022-08-19T09:58:00;97903.16;;;22.94;63.62
550;BME280;20066;48.764;9.176;2022-08-19T10:00:29;97908.75;;;22.85;64.22
550;BME280;20066;48.764;9.176;2022-08-19T10:02:58;97893.38;;;22.49;65.57
550;BME280;20066;48.764;9.176;2022-08-19T10:05:28;97893.44;;;22.79;64.20
550;BME280;20066;48.764;9.176;2022-08-19T10:08:15;97893.94;;;22.68;63.67
550;BME280;20066;48.764;9.176;2022-08-19T10:10:47;97895.31;;;22.73;64.04
550;BME280;20066;48.764;9.176;2022-08-19T10:13:17;97891.00;;;22.42;65.27
550;BME280;20066;48.764;9.176;2022-08-19T10:15:48;97897.09;;;23.05;62.63
550;BME280;20066;48.764;9.176;2022-08-19T10:18:19;97895.31;;;23.02;62.90
550;BME280;20066;48.764;9.176;2022-08-19T10:20:50;97893.31;;;23.17;62.13
550;BME280;20066;48.764;9.176;2022-08-19T10:23:19;97890.13;;;23.39;61.09
550;BME280;20066;48.764;9.176;2022-08-19T10:25:48;97888.00;;;23.43;60.64
550;BME280;20066;48.764;9.176;2022-08-19T10:28:16;97895.19;;;23.96;59.69
550;BME280;20066;48.764;9.176;2022-08-19T10:30:46;97893.00;;;23.45;60.60
550;BME280;20066;48.764;9.176;2022-08-19T10:33:14;97889.97;;;23.42;62.18
550;BME280;20066;48.764;9.176;2022-08-19T10:36:06;97882.69;;;23.25;61.02
550;BME280;20066;48.764;9.176;2022-08-19T10:38:34;97887.91;;;23.93;59.41
550;BME280;20066;48.764;9.176;2022-08-19T10:41:10;97880.47;;;23.43;60.93
550;BME280;20066;48.764;9.176;2022-08-19T10:43:39;97881.97;;;23.59;60.23
550;BME280;20066;48.764;9.176;2022-08-19T10:46:08;97876.06;;;23.31;61.97
550;BME280;20066;48.764;9.176;2022-08-19T10:48:42;97878.72;;;23.40;62.23
550;BME280;20066;48.764;9.176;2022-08-19T10:51:13;97873.72;;;23.59;60.97
550;BME280;20066;48.764;9.176;2022-08-19T10:53:59;97877.47;;;23.97;58.41
550;BME280;20066;48.764;9.176;2022-08-19T10:56:33;97877.94;;;24.36;58.08
550;BME280;20066;48.764;9.176;2022-08-19T10:59:20;97881.94;;;24.61;55.95
550;BME280;20066;48.764;9.176;2022-08-19T11:01:52;97877.56;;;23.67;59.25
550;BME280;20066;48.764;9.176;2022-08-19T11:04:22;97885.34;;;24.30;57.09
550;BME280;20066;48.764;9.176;2022-08-19T11:06:56;97880.66;;;24.10;57.56
550;BME280;20066;48.764;9.176;2022-08-19T11:09:25;97877.19;;;24.35;57.25
550;BME280;20066;48.764;9.176;2022-08-19T11:12:00;97874.22;;;24.39;56.33
550;BME280;20066;48.764;9.176;2022-08-19T11:14:30;97876.78;;;24.22;56.66
550;BME280;20066;48.764;9.176;2022-08-19T11:17:00;97880.47;;;23.99;57.86
550;BME280;20066;48.764;9.176;2022-08-19T11:19:28;97871.38;;;23.52;58.68
550;BME280;20066;48.764;9.176;2022-08-19T11:21:58;97874.44;;;24.35;55.92
550;BME280;20066;48.764;9.176;2022-08-19T11:24:29;97881.03;;;24.43;56.21
550;BME280;20066;48.764;9.176;2022-08-19T11:27:02;97880.03;;;24.72;55.84
550;BME280;20066;48.764;9.176;2022-08-19T11:29:31;97873.31;;;24.07;56.34
550;BME280;20066;48.764;9.176;2022-08-19T11:32:03;97877.31;;;24.06;56.55
550;BME280;20066;48.764;9.176;2022-08-19T11:34:32;97874.09;;;25.05;54.90
550;BME280;20066;48.764;9.176;2022-08-19T11:37:03;97878.13;;;25.10;54.06
550;BME280;20066;48.764;9.176;2022-08-19T11:39:33;97877.47;;;25.52;53.39
550;BME280;20066;48.764;9.176;2022-08-19T11:42:03;97873.03;;;25.71;52.26
550;BME280;20066;48.764;9.176;2022-08-19T11:44:51;97874.31;;;26.35;50.23
550;BME280;20066;48.764;9.176;2022-08-19T11:47:19;97875.31;;;25.78;51.21
550;BME280;20066;48.764;9.176;2022-08-19T11:49:48;97873.97;;;25.20;52.80
550;BME280;20066;48.764;9.176;2022-08-19T11:52:17;97872.94;;;24.86;52.87
550;BME280;20066;48.764;9.176;2022-08-19T11:54:45;97875.25;;;24.41;54.27
550;BME280;20066;48.764;9.176;2022-08-19T11:57:13;97874.66;;;25.15;52.00
550;BME280;20066;48.764;9.176;2022-08-19T11:59:48;97870.59;;;25.05;52.44
550;BME280;20066;48.764;9.176;2022-08-19T12:02:16;97870.75;;;25.27;52.04
550;BME280;20066;48.764;9.176;2022-08-19T12:04:44;97868.72;;;24.90;53.23
550;BME280;20066;48.764;9.176;2022-08-19T12:07:11;97868.09;;;25.81;51.32
550;BME280;20066;48.764;9.176;2022-08-19T12:09:41;97867.59;;;25.82;49.61
550;BME280;20066;48.764;9.176;2022-08-19T12:12:11;97872.94;;;25.54;50.64
550;BME280;20066;48.764;9.176;2022-08-19T12:14:39;97866.53;;;25.31;51.37
550;BME280;20066;48.764;9.176;2022-08-19T12:17:06;97863.19;;;24.90;52.85
550;BME280;20066;48.764;9.176;2022-08-19T12:19:36;97866.47;;;25.63;51.97
550;BME280;20066;48.764;9.176;2022-08-19T12:22:04;97864.56;;;26.45;50.65
550;BME280;20066;48.764;9.176;2022-08-19T12:24:33;97873.88;;;25.88;50.59
550;BME280;20066;48.764;9.176;2022-08-19T12:27:03;97865.16;;;24.84;52.46
550;BME280;20066;48.764;9.176;2022-08-19T12:29:38;97861.44;;;25.19;51.55
550;BME280;20066;48.764;9.176;2022-08-19T12:32:06;97863.22;;;26.13;49.14
550;BME280;20066;48.764;9.176;2022-08-19T12:34:38;97872.31;;;25.76;49.79
550;BME280;20066;48.764;9.176;2022-08-19T12:37:06;97861.13;;;25.43;51.89
550;BME280;20066;48.764;9.176;2022-08-19T12:39:36;97874.09;;;25.79;51.42
550;BME280;20066;48.764;9.176;2022-08-19T12:42:06;97866.22;;;24.92;54.11
550;BME280;20066;48.764;9.176;2022-08-19T12:44:36;97865.09;;;25.05;54.47
550;BME280;20066;48.764;9.176;2022-08-19T12:47:07;97866.25;;;24.98;55.43
550;BME280;20066;48.764;9.176;2022-08-19T12:49:37;97867.16;;;25.15;55.01
550;BME280;20066;48.764;9.176;2022-08-19T12:52:21;97869.81;;;25.78;53.14
550;BME280;20066;48.764;9.176;2022-08-19T12:54:50;97867.31;;;25.75;53.48
550;BME280;20066;48.764;9.176;2022-08-19T12:57:22;97862.75;;;26.14;52.15
550;BME280;20066;48.764;9.176;2022-08-19T12:59:59;97863.38;;;26.68;50.88
550;BME280;20066;48.764;9.176;2022-08-19T13:02:31;97865.22;;;24.64;58.49
550;BME280;20066;48.764;9.176;2022-08-19T13:05:06;97857.81;;;24.04;61.75
550;BME280;20066;48.764;9.176;2022-08-19T13:07:34;97865.09;;;24.53;60.15
550;BME280;20066;48.764;9.176;2022-08-19T13:10:04;97867.59;;;25.08;58.25
550;BME280;20066;48.764;9.176;2022-08-19T13:12:34;97880.47;;;24.65;60.32
550;BME280;20066;48.764;9.176;2022-08-19T13:15:02;97880.28;;;24.02;64.04
550;BME280;20066;48.764;9.176;2022-08-19T13:17:37;97872.66;;;23.71;66.23
550;BME280;20066;48.764;9.176;2022-08-19T13:20:07;97884.59;;;24.49;63.48
550;BME280;20066;48.764;9.176;2022-08-19T13:22:35;97888.75;;;24.65;62.73
550;BME280;20066;48.764;9.176;2022-08-19T13:25:04;97877.03;;;24.70;62.32
550;BME280;20066;48.764;9.176;2022-08-19T13:27:33;97881.47;;;23.40;68.46
550;BME280;20066;48.764;9.176;2022-08-19T13:30:03;97880.47;;;22.79;71.98
550;BME280;20066;48.764;9.176;2022-08-19T13:32:49;97876.16;;;22.34;75.70
550;BME280;20066;48.764;9.176;2022-08-19T13:35:35;97878.91;;;22.63;74.10
550;BME280;20066;48.764;9.176;2022-08-19T13:38:03;97878.81;;;23.17;73.03
550;BME280;20066;48.764;9.176;2022-08-19T13:40:38;97880.94;;;22.92;73.17
550;BME280;20066;48.764;9.176;2022-08-19T13:43:09;97887.06;;;23.17;71.22
550;BME280;20066;48.764;9.176;2022-08-19T13:45:48;97877.31;;;22.57;74.26